createdAt,value
2022-11-29T00:01:22.160Z,101622.78
2022-11-29T00:03:48.612Z,101634.16
2022-11-29T00:06:18.172Z,101636.69
2022-11-29T00:08:45.264Z,101628.81
2022-11-29T00:11:36.378Z,101636.69
2022-11-29T00:14:02.768Z,101637.59
2022-11-29T00:16:29.294Z,101631.44
2022-11-29T00:18:55.906Z,101641.94
2022-11-29T00:21:22.371Z,101636.69
2022-11-29T00:23:48.811Z,101642.81
2022-11-29T00:26:15.226Z,101634.06
2022-11-29T00:28:41.743Z,101635.84
2022-11-29T00:31:20.729Z,101641.94
2022-11-29T00:33:47.503Z,101640.22
2022-11-29T00:36:14.393Z,101654.16
2022-11-29T00:38:41.674Z,101649.00
2022-11-29T00:41:08.799Z,101650.75
2022-11-29T00:43:35.288Z,101646.44
2022-11-29T00:46:04.339Z,101651.69
2022-11-29T00:48:31.128Z,101644.72
2022-11-29T00:50:57.952Z,101647.28
2022-11-29T00:53:24.623Z,101648.19
2022-11-29T00:55:54.670Z,101643.81
2022-11-29T00:58:22.438Z,101646.44
2022-11-29T01:00:49.374Z,101646.44
2022-11-29T01:03:17.122Z,101638.56
2022-11-29T01:05:44.419Z,101642.94
2022-11-29T01:08:13.770Z,101646.47
2022-11-29T01:10:40.798Z,101645.63
2022-11-29T01:13:08.297Z,101657.84
2022-11-29T01:15:35.017Z,101662.22
2022-11-29T01:18:01.476Z,101666.56
2022-11-29T01:20:28.225Z,101661.38
2022-11-29T01:22:54.635Z,101662.19
2022-11-29T01:25:24.315Z,101668.34
2022-11-29T01:27:50.855Z,101664.81
2022-11-29T01:30:17.502Z,101670.06
2022-11-29T01:32:44.051Z,101665.72
2022-11-29T01:35:10.533Z,101665.00
2022-11-29T01:37:36.992Z,101678.06
2022-11-29T01:40:04.045Z,101678.00
2022-11-29T01:42:30.414Z,101677.16
2022-11-29T01:45:04.692Z,101679.84
2022-11-29T01:47:32.356Z,101679.97
2022-11-29T01:49:59.855Z,101679.13
2022-11-29T01:52:31.097Z,101683.56
2022-11-29T01:55:02.986Z,101681.81
2022-11-29T01:57:31.454Z,101689.63
2022-11-29T02:00:04.059Z,101687.81
2022-11-29T02:02:35.409Z,101696.59
2022-11-29T02:05:03.590Z,101689.56
2022-11-29T02:07:30.223Z,101698.31
2022-11-29T02:09:56.663Z,101697.44
2022-11-29T02:12:36.609Z,101695.94
2022-11-29T02:15:18.363Z,101687.16
2022-11-29T02:17:57.887Z,101693.16
2022-11-29T02:21:01.274Z,101694.03
2022-11-29T02:23:51.228Z,101687.91
2022-11-29T02:26:29.682Z,101695.72
2022-11-29T02:28:58.952Z,101696.59
2022-11-29T02:32:01.054Z,101700.06
2022-11-29T02:34:42.001Z,101699.22
2022-11-29T02:37:41.697Z,101695.94
2022-11-29T02:40:31.626Z,101709.97
2022-11-29T02:43:31.150Z,101707.50
2022-11-29T02:46:25.169Z,101697.69
2022-11-29T02:49:34.620Z,101705.53
2022-11-29T02:52:26.093Z,101709.00
2022-11-29T02:55:02.805Z,101715.97
2022-11-29T02:57:40.712Z,101713.34
2022-11-29T03:00:15.697Z,101723.84
2022-11-29T03:02:53.308Z,101729.09
2022-11-29T03:05:37.595Z,101733.47
2022-11-29T03:08:22.371Z,101729.09
2022-11-29T03:11:30.875Z,101730.81
2022-11-29T03:14:06.323Z,101737.81
2022-11-29T03:17:00.931Z,101730.81
2022-11-29T03:20:01.244Z,101734.34
2022-11-29T03:22:42.321Z,101732.56
2022-11-29T03:25:18.238Z,101731.72
2022-11-29T03:28:00.593Z,101735.19
2022-11-29T03:30:29.486Z,101740.44
2022-11-29T03:33:05.043Z,101751.84
2022-11-29T03:35:55.639Z,101751.84
2022-11-29T03:38:35.075Z,101750.09
2022-11-29T03:41:27.591Z,101752.72
2022-11-29T03:44:18.002Z,101756.25
2022-11-29T03:46:54.248Z,101764.06
2022-11-29T03:49:35.537Z,101764.06
2022-11-29T03:52:32.163Z,101765.84
2022-11-29T03:55:33.018Z,101764.13
2022-11-29T03:58:33.295Z,101769.31
2022-11-29T04:01:21.676Z,101772.84
2022-11-29T04:04:24.698Z,101774.56
2022-11-29T04:07:31.229Z,101777.19
2022-11-29T04:10:16.133Z,101784.31
2022-11-29T04:12:48.733Z,101786.13
2022-11-29T04:15:38.226Z,101787.09
2022-11-29T04:18:41.225Z,101787.94
2022-11-29T04:21:40.878Z,101783.50
2022-11-29T04:24:39.188Z,101795.72
2022-11-29T04:27:18.211Z,101793.09
2022-11-29T04:29:50.661Z,101792.19
2022-11-29T04:32:29.130Z,101796.47
2022-11-29T04:35:14.765Z,101790.38
2022-11-29T04:38:14.474Z,101791.22
2022-11-29T04:41:19.824Z,101792.09
2022-11-29T04:44:05.736Z,101797.28
2022-11-29T04:46:47.581Z,101805.16
2022-11-29T04:49:34.013Z,101801.63
2022-11-29T04:52:40.998Z,101804.19
2022-11-29T04:55:41.605Z,101805.81
2022-11-29T04:58:21.571Z,101811.88
2022-11-29T05:01:03.968Z,101815.34
2022-11-29T05:03:46.905Z,101814.38
2022-11-29T05:06:23.464Z,101813.44
2022-11-29T05:09:03.211Z,101815.16
2022-11-29T05:11:41.132Z,101823.81
2022-11-29T05:14:24.356Z,101828.97
2022-11-29T05:17:23.237Z,101834.06
2022-11-29T05:20:36.465Z,101839.25
2022-11-29T05:23:18.947Z,101833.91
2022-11-29T05:25:48.413Z,101843.53
2022-11-29T05:28:25.486Z,101854.84
2022-11-29T05:31:24.065Z,101842.50
2022-11-29T05:34:19.386Z,101846.81
2022-11-29T05:37:02.489Z,101851.16
2022-11-29T05:39:50.683Z,101861.59
2022-11-29T05:42:34.688Z,101850.16
2022-11-29T05:45:10.519Z,101857.97
2022-11-29T05:48:17.154Z,101863.19
2022-11-29T05:50:52.703Z,101859.69
2022-11-29T05:53:30.074Z,101867.50
2022-11-29T05:56:09.808Z,101877.09
2022-11-29T05:58:58.325Z,101872.72
2022-11-29T06:01:38.412Z,101884.06
2022-11-29T06:04:17.788Z,101886.63
2022-11-29T06:07:08.204Z,101885.78
2022-11-29T06:10:01.659Z,101890.13
2022-11-29T06:12:31.945Z,101885.72
2022-11-29T06:15:29.145Z,101890.06
2022-11-29T06:18:32.134Z,101892.69
2022-11-29T06:21:10.984Z,101887.44
2022-11-29T06:23:50.812Z,101893.53
2022-11-29T06:26:39.324Z,101891.81
2022-11-29T06:29:25.506Z,101892.69
2022-11-29T06:32:20.894Z,101896.22
2022-11-29T06:35:03.662Z,101906.72
2022-11-29T06:37:33.717Z,101906.72
2022-11-29T06:40:00.792Z,101910.28
2022-11-29T06:42:27.380Z,101912.78
2022-11-29T06:44:54.162Z,101911.06
2022-11-29T06:47:39.722Z,101920.66
2022-11-29T06:50:06.803Z,101919.94
2022-11-29T06:52:44.577Z,101935.63
2022-11-29T06:55:11.015Z,101929.53
2022-11-29T06:57:51.622Z,101933.91
2022-11-29T07:00:26.963Z,101940.09
2022-11-29T07:03:19.513Z,101944.34
2022-11-29T07:05:46.913Z,101946.06
2022-11-29T07:08:17.096Z,101950.50
2022-11-29T07:10:45.575Z,101947.06
2022-11-29T07:13:15.882Z,101954.16
2022-11-29T07:15:53.767Z,101957.72
2022-11-29T07:18:39.114Z,101962.97
2022-11-29T07:21:11.322Z,101965.69
2022-11-29T07:24:04.863Z,101968.31
2022-11-29T07:26:35.491Z,101973.47
2022-11-29T07:29:26.368Z,101982.25
2022-11-29T07:32:22.389Z,101986.69
2022-11-29T07:35:04.010Z,101983.97
2022-11-29T07:37:39.652Z,101990.06
2022-11-29T07:40:14.446Z,101997.13
2022-11-29T07:43:05.220Z,102002.38
2022-11-29T07:45:36.732Z,102000.59
2022-11-29T07:48:03.836Z,102000.66
2022-11-29T07:50:31.232Z,102009.38
2022-11-29T07:53:00.812Z,102011.09
2022-11-29T07:55:27.521Z,102007.81
2022-11-29T07:57:56.862Z,102015.63
2022-11-29T08:00:23.397Z,102016.56
2022-11-29T08:02:50.803Z,102018.25
2022-11-29T08:05:17.873Z,102017.47
2022-11-29T08:07:44.413Z,102016.59
2022-11-29T08:10:38.183Z,102021.00
2022-11-29T08:13:04.731Z,102031.50
2022-11-29T08:15:31.229Z,102028.88
2022-11-29T08:18:02.364Z,102037.69
2022-11-29T08:20:28.822Z,102038.56
2022-11-29T08:22:58.247Z,102036.78
2022-11-29T08:25:25.837Z,102032.34
2022-11-29T08:27:52.398Z,102036.78
2022-11-29T08:30:22.247Z,102043.84
2022-11-29T08:32:51.677Z,102038.72
2022-11-29T08:35:20.061Z,102039.53
2022-11-29T08:37:46.650Z,102034.22
2022-11-29T08:40:14.183Z,102039.41
2022-11-29T08:42:41.734Z,102043.75
2022-11-29T08:45:09.650Z,102038.41
2022-11-29T08:47:37.047Z,102041.88
2022-11-29T08:50:08.249Z,102045.47
2022-11-29T08:52:55.693Z,102048.94
2022-11-29T08:55:26.404Z,102054.25
2022-11-29T08:57:54.147Z,102051.63
2022-11-29T09:00:21.321Z,102058.59
2022-11-29T09:02:48.467Z,102050.72
2022-11-29T09:05:15.815Z,102064.75
2022-11-29T09:07:42.880Z,102062.19
2022-11-29T09:10:11.213Z,102053.38
2022-11-29T09:12:39.583Z,102060.56
2022-11-29T09:15:10.715Z,102064.03
2022-11-29T09:17:37.520Z,102058.75
2022-11-29T09:20:05.377Z,102059.59
2022-11-29T09:22:31.817Z,102068.28
2022-11-29T09:24:58.249Z,102074.38
2022-11-29T09:27:24.623Z,102071.75
2022-11-29T09:29:51.113Z,102076.84
2022-11-29T09:32:17.704Z,102081.19
2022-11-29T09:34:44.451Z,102079.66
2022-11-29T09:37:10.999Z,102083.94
2022-11-29T09:39:38.126Z,102090.91
2022-11-29T09:42:19.773Z,102093.59
2022-11-29T09:45:14.507Z,102099.75
2022-11-29T09:48:07.860Z,102096.16
2022-11-29T09:51:17.467Z,102104.91
2022-11-29T09:53:58.472Z,102109.28
2022-11-29T09:56:36.930Z,102112.81
2022-11-29T09:59:09.770Z,102112.97
2022-11-29T10:01:45.117Z,102111.16
2022-11-29T10:04:18.200Z,102118.16
2022-11-29T10:07:21.485Z,102109.38
2022-11-29T10:09:53.435Z,102115.38
2022-11-29T10:13:02.838Z,102126.78
2022-11-29T10:15:34.238Z,102125.19
2022-11-29T10:18:16.854Z,102129.53
2022-11-29T10:20:49.169Z,102125.25
2022-11-29T10:23:32.956Z,102115.47
2022-11-29T10:25:59.768Z,102111.81
2022-11-29T10:28:31.085Z,102112.81
2022-11-29T10:31:12.795Z,102116.28
2022-11-29T10:33:41.067Z,102113.66
2022-11-29T10:36:18.676Z,102119.72
2022-11-29T10:38:47.725Z,102118.06
2022-11-29T10:41:21.844Z,102122.34
2022-11-29T10:43:53.768Z,102120.47
2022-11-29T10:46:31.300Z,102116.94
2022-11-29T10:49:01.195Z,102116.09
2022-11-29T10:51:28.917Z,102117.78
2022-11-29T10:53:58.533Z,102115.13
2022-11-29T10:56:30.070Z,102117.69
2022-11-29T10:59:03.328Z,102120.25
2022-11-29T11:01:42.210Z,102113.22
2022-11-29T11:04:15.496Z,102116.75
2022-11-29T11:06:56.938Z,102109.75
2022-11-29T11:09:37.127Z,102114.91
2022-11-29T11:12:17.694Z,102125.41
2022-11-29T11:14:45.217Z,102114.13
2022-11-29T11:17:26.125Z,102113.28
2022-11-29T11:20:02.002Z,102113.41
2022-11-29T11:22:29.558Z,102106.31
2022-11-29T11:25:00.255Z,102109.75
2022-11-29T11:27:35.975Z,102118.53
2022-11-29T11:30:05.347Z,102120.25
2022-11-29T11:32:31.960Z,102121.22
2022-11-29T11:35:01.257Z,102127.25
2022-11-29T11:37:30.681Z,102128.03
2022-11-29T11:40:00.871Z,102123.59
2022-11-29T11:42:39.556Z,102122.84
2022-11-29T11:45:12.575Z,102121.03
2022-11-29T11:47:47.199Z,102121.88
2022-11-29T11:50:27.770Z,102123.78
2022-11-29T11:53:05.985Z,102122.84
2022-11-29T11:55:40.634Z,102129.69
2022-11-29T11:58:17.091Z,102128.84
2022-11-29T12:01:04.803Z,102135.00
2022-11-29T12:03:48.462Z,102133.19
2022-11-29T12:06:36.564Z,102135.81
2022-11-29T12:09:09.044Z,102142.81
2022-11-29T12:12:10.643Z,102143.50
2022-11-29T12:15:06.687Z,102140.88
2022-11-29T12:17:50.584Z,102144.50
2022-11-29T12:20:17.024Z,102148.06
2022-11-29T12:23:12.634Z,102144.38
2022-11-29T12:26:00.371Z,102152.13
2022-11-29T12:28:32.189Z,102160.03
2022-11-29T12:31:16.938Z,102165.22
2022-11-29T12:33:46.482Z,102159.06
2022-11-29T12:36:38.183Z,102161.63
2022-11-29T12:39:42.525Z,102163.34
2022-11-29T12:42:21.176Z,102168.50
2022-11-29T12:44:58.630Z,102164.00
2022-11-29T12:47:52.025Z,102168.28
2022-11-29T12:50:37.683Z,102182.19
2022-11-29T12:53:41.041Z,102181.41
2022-11-29T12:56:16.558Z,102183.91
2022-11-29T12:59:13.534Z,102187.34
2022-11-29T13:02:04.985Z,102188.13
2022-11-29T13:05:01.035Z,102179.25
2022-11-29T13:07:51.943Z,102179.16
2022-11-29T13:10:32.640Z,102177.38
2022-11-29T13:13:19.673Z,102180.91
2022-11-29T13:16:04.927Z,102188.72
2022-11-29T13:18:37.530Z,102186.06
2022-11-29T13:21:15.185Z,102190.50
2022-11-29T13:24:12.171Z,102188.78
2022-11-29T13:26:40.459Z,102193.13
2022-11-29T13:29:11.551Z,102190.50
2022-11-29T13:31:39.147Z,102186.97
2022-11-29T13:34:38.955Z,102187.88
2022-11-29T13:37:28.646Z,102189.59
2022-11-29T13:40:07.517Z,102196.59
2022-11-29T13:42:41.383Z,102202.69
2022-11-29T13:45:31.826Z,102199.22
2022-11-29T13:48:00.262Z,102202.75
2022-11-29T13:50:42.380Z,102196.59
2022-11-29T13:53:18.256Z,102200.06
2022-11-29T13:56:00.221Z,102202.75
2022-11-29T13:58:42.195Z,102202.75
2022-11-29T14:01:11.331Z,102205.38
2022-11-29T14:03:42.620Z,102204.47
2022-11-29T14:06:13.738Z,102200.91
2022-11-29T14:09:22.343Z,102200.06
2022-11-29T14:12:00.543Z,102194.78
2022-11-29T14:14:51.456Z,102197.41
2022-11-29T14:17:43.079Z,102191.25
2022-11-29T14:20:30.649Z,102192.97
2022-11-29T14:23:08.019Z,102200.91
2022-11-29T14:25:51.272Z,102200.91
2022-11-29T14:28:18.247Z,102200.88
2022-11-29T14:30:44.608Z,102199.06
2022-11-29T14:33:32.713Z,102208.75
2022-11-29T14:36:14.324Z,102199.06
2022-11-29T14:39:23.108Z,102203.50
2022-11-29T14:42:01.801Z,102209.66
2022-11-29T14:44:30.686Z,102217.56
2022-11-29T14:47:04.021Z,102223.66
2022-11-29T14:49:44.875Z,102221.09
2022-11-29T14:52:14.394Z,102222.91
2022-11-29T14:54:58.807Z,102216.88
2022-11-29T14:57:54.752Z,102216.06
2022-11-29T15:00:25.575Z,102209.97
2022-11-29T15:03:00.122Z,102217.03
2022-11-29T15:05:34.834Z,102208.38
2022-11-29T15:08:13.186Z,102216.38
2022-11-29T15:10:43.743Z,102205.91
2022-11-29T15:13:21.814Z,102208.59
2022-11-29T15:16:21.512Z,102216.56
2022-11-29T15:19:24.301Z,102221.06
2022-11-29T15:22:15.799Z,102226.44
2022-11-29T15:24:51.588Z,102223.03
2022-11-29T15:27:18.283Z,102222.22
2022-11-29T15:29:50.488Z,102225.81
2022-11-29T15:32:32.658Z,102224.97
2022-11-29T15:34:59.350Z,102225.94
2022-11-29T15:37:36.483Z,102232.19
2022-11-29T15:40:11.992Z,102227.91
2022-11-29T15:42:40.931Z,102235.88
2022-11-29T15:45:25.921Z,102233.38
2022-11-29T15:47:53.271Z,102239.56
2022-11-29T15:50:29.262Z,102238.81
2022-11-29T15:53:03.509Z,102244.13
2022-11-29T15:55:30.695Z,102241.59
2022-11-29T15:58:01.581Z,102244.22
2022-11-29T16:00:35.783Z,102249.59
2022-11-29T16:03:04.299Z,102255.75
2022-11-29T16:05:37.795Z,102251.47
2022-11-29T16:08:08.269Z,102255.06
2022-11-29T16:10:40.182Z,102243.75
2022-11-29T16:13:23.974Z,102255.13
2022-11-29T16:16:04.682Z,102261.34
2022-11-29T16:18:34.880Z,102265.72
2022-11-29T16:21:03.482Z,102258.78
2022-11-29T16:23:48.032Z,102263.22
2022-11-29T16:26:26.510Z,102259.75
2022-11-29T16:29:00.286Z,102258.09
2022-11-29T16:31:35.328Z,102257.25
2022-11-29T16:34:15.468Z,102260.78
2022-11-29T16:36:41.991Z,102265.19
2022-11-29T16:39:23.073Z,102267.00
2022-11-29T16:42:07.618Z,102270.53
2022-11-29T16:44:39.986Z,102271.47
2022-11-29T16:47:20.951Z,102265.34
2022-11-29T16:50:02.341Z,102262.78
2022-11-29T16:52:33.703Z,102263.69
2022-11-29T16:55:00.243Z,102268.09
2022-11-29T16:57:28.027Z,102276.88
2022-11-29T16:59:54.537Z,102279.56
2022-11-29T17:02:21.408Z,102269.91
2022-11-29T17:04:48.393Z,102277.84
2022-11-29T17:07:24.058Z,102273.50
2022-11-29T17:09:50.633Z,102271.78
2022-11-29T17:12:21.546Z,102275.34
2022-11-29T17:14:48.214Z,102283.22
2022-11-29T17:17:17.689Z,102276.25
2022-11-29T17:19:44.359Z,102286.75
2022-11-29T17:22:12.076Z,102290.28
2022-11-29T17:24:41.153Z,102284.19
2022-11-29T17:27:11.267Z,102293.81
2022-11-29T17:29:37.642Z,102289.44
2022-11-29T17:32:04.295Z,102288.56
2022-11-29T17:34:30.806Z,102289.44
2022-11-29T17:37:00.112Z,102290.38
2022-11-29T17:39:26.502Z,102289.50
2022-11-29T17:41:52.911Z,102296.53
2022-11-29T17:44:19.286Z,102304.41
2022-11-29T17:46:45.718Z,102304.41
2022-11-29T17:49:12.133Z,102300.88
2022-11-29T17:51:55.922Z,102307.03
2022-11-29T17:54:22.697Z,102301.75
2022-11-29T17:56:49.414Z,102293.91
2022-11-29T17:59:15.917Z,102301.75
2022-11-29T18:01:42.401Z,102299.13
2022-11-29T18:04:08.936Z,102304.38
2022-11-29T18:06:40.071Z,102313.09
2022-11-29T18:09:08.327Z,102316.59
2022-11-29T18:11:46.893Z,102315.69
2022-11-29T18:14:19.612Z,102320.06
2022-11-29T18:16:46.509Z,102323.56
2022-11-29T18:19:16.441Z,102322.69
2022-11-29T18:21:43.290Z,102326.22
2022-11-29T18:24:09.971Z,102323.59
2022-11-29T18:26:37.781Z,102321.91
2022-11-29T18:29:05.575Z,102337.66
2022-11-29T18:31:34.696Z,102334.09
2022-11-29T18:34:02.991Z,102333.25
2022-11-29T18:36:32.730Z,102334.09
2022-11-29T18:39:05.263Z,102330.56
2022-11-29T18:41:32.162Z,102332.28
2022-11-29T18:44:10.428Z,102336.63
2022-11-29T18:46:39.358Z,102338.38
2022-11-29T18:49:08.659Z,102345.41
2022-11-29T18:51:37.119Z,102341.88
2022-11-29T18:54:11.451Z,102340.09
2022-11-29T18:56:38.498Z,102345.34
2022-11-29T18:59:08.812Z,102347.13
2022-11-29T19:01:37.846Z,102348.88
2022-11-29T19:04:04.473Z,102348.88
2022-11-29T19:06:39.381Z,102353.25
2022-11-29T19:09:09.629Z,102360.28
2022-11-29T19:11:36.063Z,102352.41
2022-11-29T19:14:04.968Z,102356.81
2022-11-29T19:16:36.174Z,102354.25
2022-11-29T19:19:02.645Z,102355.09
2022-11-29T19:21:34.596Z,102357.72
2022-11-29T19:24:04.016Z,102355.16
2022-11-29T19:26:32.042Z,102355.22
2022-11-29T19:29:00.258Z,102362.28
2022-11-29T19:31:28.271Z,102352.66
2022-11-29T19:33:55.578Z,102355.31
2022-11-29T19:36:27.558Z,102359.69
2022-11-29T19:38:54.926Z,102355.31
2022-11-29T19:41:25.178Z,102361.38
2022-11-29T19:43:52.387Z,102357.00
2022-11-29T19:46:24.703Z,102363.16
2022-11-29T19:48:58.850Z,102370.97
2022-11-29T19:51:26.938Z,102361.41
2022-11-29T19:53:54.814Z,102358.75
2022-11-29T19:56:21.878Z,102361.31
2022-11-29T19:58:48.800Z,102365.72
2022-11-29T20:01:22.374Z,102364.00
2022-11-29T20:03:49.192Z,102373.59
2022-11-29T20:06:16.241Z,102369.19
2022-11-29T20:08:43.035Z,102381.34
2022-11-29T20:11:09.945Z,102371.78
2022-11-29T20:13:38.219Z,102378.72
2022-11-29T20:16:08.937Z,102382.28
2022-11-29T20:18:37.140Z,102384.88
2022-11-29T20:21:12.211Z,102383.09
2022-11-29T20:23:39.683Z,102385.66
2022-11-29T20:26:13.890Z,102381.34
2022-11-29T20:28:40.764Z,102382.19
2022-11-29T20:31:09.038Z,102384.81
2022-11-29T20:33:35.738Z,102384.81
2022-11-29T20:36:30.391Z,102383.09
2022-11-29T20:39:13.566Z,102389.22
2022-11-29T20:42:18.677Z,102387.44
2022-11-29T20:44:54.452Z,102389.22
2022-11-29T20:47:24.924Z,102385.72
2022-11-29T20:49:52.138Z,102389.22
2022-11-29T20:52:45.133Z,102395.41
2022-11-29T20:55:11.618Z,102396.31
2022-11-29T20:57:38.439Z,102403.38
2022-11-29T21:00:11.266Z,102403.31
2022-11-29T21:02:38.148Z,102407.72
2022-11-29T21:05:05.576Z,102407.84
2022-11-29T21:07:32.034Z,102406.13
2022-11-29T21:10:01.339Z,102404.28
2022-11-29T21:12:29.756Z,102404.28
2022-11-29T21:14:56.713Z,102412.13
2022-11-29T21:17:26.461Z,102417.28
2022-11-29T21:19:56.880Z,102422.53
2022-11-29T21:22:45.053Z,102422.59
2022-11-29T21:25:25.262Z,102420.75
2022-11-29T21:27:52.698Z,102419.97
2022-11-29T21:30:22.607Z,102428.63
2022-11-29T21:32:49.530Z,102430.34
2022-11-29T21:35:16.086Z,102424.19
2022-11-29T21:37:43.586Z,102435.59
2022-11-29T21:40:11.749Z,102432.97
2022-11-29T21:42:38.195Z,102430.34
2022-11-29T21:45:10.445Z,102427.72
2022-11-29T21:47:41.137Z,102433.81
2022-11-29T21:50:11.585Z,102432.91
2022-11-29T21:52:37.991Z,102434.69
2022-11-29T21:55:05.678Z,102438.19
2022-11-29T21:57:32.081Z,102434.69
2022-11-29T21:59:58.448Z,102439.94
2022-11-29T22:02:24.916Z,102440.81
2022-11-29T22:04:51.346Z,102442.59
2022-11-29T22:07:17.925Z,102446.06
2022-11-29T22:09:44.395Z,102444.31
2022-11-29T22:12:32.394Z,102439.91
2022-11-29T22:15:00.395Z,102443.41
2022-11-29T22:17:26.830Z,102444.31
2022-11-29T22:19:53.171Z,102441.69
2022-11-29T22:22:19.686Z,102450.41
2022-11-29T22:24:46.288Z,102449.56
2022-11-29T22:27:12.993Z,102443.41
2022-11-29T22:29:39.407Z,102452.13
2022-11-29T22:32:06.198Z,102451.34
2022-11-29T22:34:34.880Z,102447.00
2022-11-29T22:37:03.755Z,102451.41
2022-11-29T22:39:30.171Z,102454.03
2022-11-29T22:41:58.871Z,102449.63
2022-11-29T22:44:25.243Z,102455.75
2022-11-29T22:46:51.733Z,102456.59
2022-11-29T22:49:18.233Z,102456.59
2022-11-29T22:51:44.676Z,102456.59
2022-11-29T22:54:15.156Z,102463.59
2022-11-29T22:56:43.158Z,102455.72
2022-11-29T22:59:10.141Z,102460.13
2022-11-29T23:01:39.202Z,102465.31
2022-11-29T23:04:08.094Z,102471.41
2022-11-29T23:06:42.862Z,102466.16
2022-11-29T23:09:15.665Z,102465.31
2022-11-29T23:11:43.909Z,102468.84
2022-11-29T23:14:10.525Z,102470.56
2022-11-29T23:16:37.133Z,102468.78
2022-11-29T23:19:03.826Z,102474.03
2022-11-29T23:21:32.963Z,102473.19
2022-11-29T23:24:00.916Z,102473.19
2022-11-29T23:26:40.248Z,102464.44
2022-11-29T23:29:12.456Z,102474.94
2022-11-29T23:31:39.502Z,102465.31
2022-11-29T23:34:05.879Z,102464.44
2022-11-29T23:36:33.164Z,102470.56
2022-11-29T23:38:59.606Z,102472.28
2022-11-29T23:41:26.518Z,102470.56
2022-11-29T23:43:52.960Z,102470.56
2022-11-29T23:46:21.669Z,102468.84
2022-11-29T23:48:50.921Z,102468.84
2022-11-29T23:51:18.817Z,102473.19
2022-11-29T23:53:46.878Z,102474.94
2022-11-29T23:56:15.687Z,102469.69
2022-11-29T23:58:43.385Z,102473.19
